Time;durP1;ratioP1;P1;durP2;ratioP2;P2;SDS_P1;SDS_P2;PMS_P1;PMS_P2;Temp;Humidity;BMP_temperature;BMP_pressure;BME280_temperature;BME280_humidity;BME280_pressure;Samples;Min_cycle;Max_cycle;Signal;HPM_P1;HPM_P2
2022/08/21 00:01:03;;;;;;;0.00;0.00;;;;;;;15.53;63.04;100756.91;7369360;19;20002;-63
2022/08/21 00:03:28;;;;;;;0.00;0.00;;;;;;;15.51;62.48;100768.41;7370174;19;20010;-63
2022/08/21 00:05:54;;;;;;;0.00;0.00;;;;;;;15.46;62.39;100760.72;7368728;19;20082;-62
2022/08/21 00:08:20;;;;;;;0.00;0.00;;;;;;;15.49;62.52;100762.38;7368514;19;20002;-63
2022/08/21 00:10:47;;;;;;;0.00;0.00;;;;;;;15.47;61.98;100762.44;7367634;19;20022;-63
2022/08/21 00:13:13;;;;;;;0.00;0.00;;;;;;;15.46;61.83;100759.84;7368917;19;20017;-63
2022/08/21 00:15:40;;;;;;;0.00;0.00;;;;;;;15.35;61.89;100757.66;7368290;19;20106;-63
2022/08/21 00:18:10;;;;;;;0.00;0.00;;;;;;;15.44;61.61;100767.81;7368486;19;20100;-63
2022/08/21 00:20:37;;;;;;;0.00;0.00;;;;;;;15.44;61.87;100772.22;7367039;19;20036;-62
2022/08/21 00:23:02;;;;;;;0.00;0.00;;;;;;;15.43;61.50;100770.53;7368125;19;20114;-63
2022/08/21 00:25:28;;;;;;;0.00;0.00;;;;;;;15.28;61.56;100749.19;7366731;19;20914;-63
2022/08/21 00:27:54;;;;;;;0.00;0.00;;;;;;;15.41;61.52;100772.34;7369879;19;20034;-62
2022/08/21 00:30:21;;;;;;;0.00;0.00;;;;;;;15.39;61.37;100780.31;7367382;19;20019;-63
2022/08/21 00:32:47;;;;;;;0.00;0.00;;;;;;;15.36;61.28;100774.31;7370088;19;20078;-62
2022/08/21 00:35:16;;;;;;;0.00;0.00;;;;;;;15.35;61.17;100781.34;7368726;19;20684;-63
2022/08/21 00:37:42;;;;;;;0.00;0.00;;;;;;;15.20;61.41;100764.41;7367526;19;20011;-63
2022/08/21 00:40:11;;;;;;;0.00;0.00;;;;;;;15.23;61.30;100769.56;7369466;19;20176;-63
2022/08/21 00:42:37;;;;;;;0.00;0.00;;;;;;;15.23;61.44;100774.81;7367040;19;20035;-63
2022/08/21 00:45:03;;;;;;;0.00;0.00;;;;;;;15.21;61.27;100781.94;7368218;19;21994;-63
2022/08/21 00:47:28;;;;;;;0.00;0.00;;;;;;;15.17;61.28;100780.34;7368129;19;20438;-63
2022/08/21 00:49:54;;;;;;;0.00;0.00;;;;;;;15.13;60.95;100770.84;7368161;19;20069;-63
2022/08/21 00:52:24;;;;;;;0.00;0.00;;;;;;;15.12;60.91;100777.03;7367300;19;20006;-63
2022/08/21 00:54:51;;;;;;;0.00;0.00;;;;;;;15.08;61.25;100774.59;7369086;19;20530;-63
2022/08/21 00:57:21;;;;;;;0.00;0.00;;;;;;;15.04;61.02;100774.69;7367981;19;20003;-63
2022/08/21 00:59:51;;;;;;;0.00;0.00;;;;;;;15.00;61.25;100772.25;7368233;19;20010;-63
2022/08/21 01:02:17;;;;;;;0.00;0.00;;;;;;;14.84;61.33;100758.84;7366339;19;20018;-63
2022/08/21 01:04:42;;;;;;;0.00;0.00;;;;;;;14.90;61.15;100777.06;7368260;19;20003;-63
2022/08/21 01:07:09;;;;;;;0.00;0.00;;;;;;;14.86;61.08;100775.44;7366059;19;20007;-63
2022/08/21 01:09:35;;;;;;;0.00;0.00;;;;;;;14.82;60.98;100778.25;7368099;19;20018;-63
2022/08/21 01:12:00;;;;;;;0.00;0.00;;;;;;;14.78;60.89;100786.25;7365639;19;20019;-63
2022/08/21 01:14:28;;;;;;;0.00;0.00;;;;;;;14.75;60.69;100775.88;7367276;19;20469;-63
2022/08/21 01:16:55;;;;;;;0.00;0.00;;;;;;;14.69;60.56;100776.09;7366071;19;20550;-62
2022/08/21 01:19:21;;;;;;;0.00;0.00;;;;;;;14.64;60.98;100785.91;7366190;19;20477;-63
2022/08/21 01:21:46;;;;;;;0.00;0.00;;;;;;;14.56;60.56;100777.50;7367128;19;20015;-63
2022/08/21 01:24:13;;;;;;;0.00;0.00;;;;;;;14.51;60.94;100775.03;7366555;19;20014;-63
2022/08/21 01:26:39;;;;;;;0.00;0.00;;;;;;;14.44;61.42;100772.66;7366445;19;20010;-63
2022/08/21 01:29:22;;;;;;;0.00;0.00;;;;;;;14.40;60.53;100784.22;7367002;19;20505;-62
2022/08/21 01:31:48;;;;;;;0.00;0.00;;;;;;;14.31;61.75;100777.50;7366754;19;20014;-63
2022/08/21 01:34:15;;;;;;;0.00;0.00;;;;;;;14.23;61.85;100780.41;7368020;19;22959;-63
2022/08/21 01:36:40;;;;;;;0.00;0.00;;;;;;;14.21;61.99;100778.75;7365399;19;20010;-63
2022/08/21 01:39:06;;;;;;;0.00;0.00;;;;;;;14.18;62.06;100778.88;7366864;19;21479;-63
2022/08/21 01:41:31;;;;;;;0.00;0.00;;;;;;;14.12;61.92;100777.31;7365643;19;20359;-63
2022/08/21 01:43:57;;;;;;;0.00;0.00;;;;;;;14.12;62.02;100793.06;7365587;19;20007;-63
2022/08/21 01:46:22;;;;;;;0.00;0.00;;;;;;;14.09;61.71;100806.34;7363391;19;20514;-63
2022/08/21 01:48:48;;;;;;;0.00;0.00;;;;;;;14.07;62.01;100805.50;7366584;19;20017;-63
2022/08/21 01:51:14;;;;;;;0.00;0.00;;;;;;;14.02;62.23;100807.44;7366021;19;20037;-63
2022/08/21 01:53:39;;;;;;;0.00;0.00;;;;;;;14.02;61.88;100802.19;7367139;19;20010;-63
2022/08/21 01:56:07;;;;;;;0.00;0.00;;;;;;;14.00;61.93;100793.53;7365220;19;20018;-63
2022/08/21 01:58:33;;;;;;;0.00;0.00;;;;;;;13.86;61.54;100777.41;7355842;19;20026;-64
2022/08/21 02:01:01;;;;;;;0.00;0.00;;;;;;;13.88;61.25;100784.28;7365053;19;20101;-63
2022/08/21 02:03:26;;;;;;;;;;;;;;;13.64;60.33;100749.28;7363859;19;20033;-63
2022/08/21 02:05:52;;;;;;;0.00;0.00;;;;;;;13.89;62.04;100795.66;7364594;19;19926;-63
2022/08/21 02:08:17;;;;;;;0.00;0.00;;;;;;;13.84;61.83;100787.97;7362626;19;20006;-61
2022/08/21 02:10:42;;;;;;;0.00;0.00;;;;;;;13.80;61.89;100791.59;7364337;19;20010;-63
2022/08/21 02:13:08;;;;;;;0.00;0.00;;;;;;;13.77;62.44;100787.28;7359146;19;20018;-63
2022/08/21 02:15:34;;;;;;;0.00;0.00;;;;;;;13.71;62.21;100782.25;7358753;19;20010;-63
2022/08/21 02:18:01;;;;;;;0.00;0.00;;;;;;;13.68;62.34;100784.97;7364638;19;21892;-63
2022/08/21 02:20:36;;;;;;;0.00;0.00;;;;;;;13.67;61.97;100790.28;7362523;19;20043;-63
2022/08/21 02:23:03;;;;;;;0.00;0.00;;;;;;;13.63;62.59;100796.53;7362959;19;20006;-63
2022/08/21 02:25:30;;;;;;;0.00;0.00;;;;;;;13.61;62.80;100791.34;7364565;19;20006;-63
2022/08/21 02:27:56;;;;;;;0.00;0.00;;;;;;;13.58;62.51;100799.31;7362459;19;20093;-63
2022/08/21 02:30:31;;;;;;;0.00;0.00;;;;;;;13.56;61.79;100798.53;7366275;19;20054;-63
2022/08/21 02:32:58;;;;;;;0.00;0.00;;;;;;;13.55;62.61;100794.19;7370557;19;20010;-63
2022/08/21 02:35:23;;;;;;;0.00;0.00;;;;;;;13.53;62.88;100793.38;7366833;19;20027;-63
2022/08/21 02:37:55;;;;;;;0.10;0.10;;;;;;;13.52;62.67;100786.41;7370454;19;20006;-63
2022/08/21 02:40:24;;;;;;;0.00;0.00;;;;;;;13.52;62.60;100785.56;7369629;19;20010;-63
2022/08/21 02:42:49;;;;;;;0.00;0.00;;;;;;;13.48;63.00;100784.78;7369126;19;20347;-63
2022/08/21 02:45:17;;;;;;;0.00;0.00;;;;;;;13.47;63.29;100788.34;7368358;19;20014;-63
2022/08/21 02:47:50;;;;;;;0.00;0.00;;;;;;;13.42;62.24;100774.50;7369094;19;20014;-63
2022/08/21 02:50:35;;;;;;;0.00;0.00;;;;;;;13.44;62.42;100786.69;7365320;19;20014;-63
2022/08/21 02:53:02;;;;;;;0.00;0.00;;;;;;;13.38;63.15;100783.38;7366305;19;20010;-63
2022/08/21 02:55:30;;;;;;;0.03;0.03;;;;;;;13.38;62.98;100780.75;7368391;19;20086;-61
2022/08/21 02:57:56;;;;;;;0.00;0.00;;;;;;;13.35;63.05;100783.50;7369323;19;20331;-63
2022/08/21 03:00:23;;;;;;;0.00;0.00;;;;;;;13.33;63.12;100783.56;7369947;19;20006;-63
2022/08/21 03:02:49;;;;;;;0.00;0.00;;;;;;;13.31;63.02;100787.97;7365249;19;21096;-63
2022/08/21 03:05:16;;;;;;;0.00;0.00;;;;;;;13.29;63.48;100783.72;7365761;19;20011;-63
2022/08/21 03:07:43;;;;;;;0.00;0.00;;;;;;;13.28;63.14;100781.97;7368451;19;20013;-63
2022/08/21 03:10:09;;;;;;;0.00;0.00;;;;;;;13.24;63.23;100771.59;7371236;19;20026;-63
2022/08/21 03:12:35;;;;;;;0.00;0.00;;;;;;;13.22;63.22;100769.91;7368722;19;20002;-62
2022/08/21 03:15:11;;;;;;;0.00;0.00;;;;;;;13.20;63.24;100774.34;7370242;19;20355;-63
2022/08/21 03:17:37;;;;;;;0.00;0.00;;;;;;;13.15;63.21;100766.63;7364628;19;20006;-63
2022/08/21 03:20:07;;;;;;;0.00;0.00;;;;;;;13.15;63.38;100764.00;7367476;19;22092;-63
2022/08/21 03:22:33;;;;;;;0.00;0.00;;;;;;;13.12;63.46;100771.94;7369545;19;20431;-63
2022/08/21 03:24:59;;;;;;;0.00;0.00;;;;;;;13.04;63.67;100768.72;7371369;19;20298;-63
2022/08/21 03:27:26;;;;;;;0.00;0.00;;;;;;;13.07;64.01;100779.09;7370186;19;20010;-63
2022/08/21 03:29:52;;;;;;;0.00;0.00;;;;;;;12.94;63.56;100767.31;7370631;19;20025;-63
2022/08/21 03:32:17;;;;;;;0.00;0.00;;;;;;;13.04;63.55;100794.09;7370427;19;20011;-63
2022/08/21 03:34:43;;;;;;;0.00;0.00;;;;;;;13.02;63.83;100791.50;7368170;19;20045;-62
2022/08/21 03:37:10;;;;;;;0.00;0.00;;;;;;;13.01;63.81;100795.03;7369236;19;20017;-63
2022/08/21 03:39:36;;;;;;;0.00;0.00;;;;;;;12.97;63.95;100798.63;7371493;19;20070;-63
2022/08/21 03:42:01;;;;;;;0.00;0.00;;;;;;;12.95;64.41;100792.59;7368714;19;20082;-63
2022/08/21 03:44:30;;;;;;;0.00;0.00;;;;;;;12.93;64.45;100792.66;7369569;19;20212;-63
2022/08/21 03:46:56;;;;;;;0.00;0.00;;;;;;;12.82;64.24;100775.53;7367970;19;20035;-62
2022/08/21 03:49:22;;;;;;;0.00;0.00;;;;;;;12.88;64.31;100801.56;7367579;19;20490;-63
2022/08/21 03:51:47;;;;;;;0.00;0.00;;;;;;;12.86;64.44;100801.59;7369424;19;20014;-62
2022/08/21 03:54:13;;;;;;;0.00;0.00;;;;;;;12.84;64.59;100803.41;7369429;19;20021;-63
2022/08/21 03:56:39;;;;;;;0.00;0.00;;;;;;;12.82;64.15;100799.09;7368109;19;20123;-62
2022/08/21 03:59:05;;;;;;;0.00;0.00;;;;;;;12.78;64.85;100802.75;7369858;19;20010;-63
2022/08/21 04:01:31;;;;;;;0.00;0.00;;;;;;;12.76;64.25;100796.69;7369568;19;20022;-63
2022/08/21 04:03:57;;;;;;;0.00;0.00;;;;;;;12.73;64.70;100795.88;7370152;19;20014;-63
2022/08/21 04:06:22;;;;;;;0.00;0.00;;;;;;;12.71;64.51;100802.06;7368486;19;20026;-63
2022/08/21 04:08:48;;;;;;;0.00;0.00;;;;;;;12.68;64.58;100808.25;7368980;19;20014;-63
2022/08/21 04:11:14;;;;;;;0.00;0.00;;;;;;;12.67;64.92;100806.56;7367297;19;20043;-63
2022/08/21 04:13:40;;;;;;;0.00;0.00;;;;;;;12.67;64.99;100808.28;7369131;19;20467;-63
2022/08/21 04:16:06;;;;;;;0.00;0.00;;;;;;;12.64;65.02;100817.13;7370251;19;20070;-63
2022/08/21 04:18:32;;;;;;;0.00;0.00;;;;;;;12.50;64.81;100787.84;7368863;19;20018;-63
2022/08/21 04:20:59;;;;;;;0.00;0.00;;;;;;;12.55;64.68;100796.41;7369911;19;20018;-63
2022/08/21 04:23:25;;;;;;;0.00;0.00;;;;;;;12.59;64.56;100803.28;7368526;19;20010;-63
2022/08/21 04:25:55;;;;;;;0.00;0.00;;;;;;;12.58;64.67;100806.81;7368113;19;20014;-62
2022/08/21 04:28:21;;;;;;;0.00;0.00;;;;;;;12.56;64.74;100808.59;7369931;19;20013;-63
2022/08/21 04:30:47;;;;;;;0.00;0.00;;;;;;;12.45;64.96;100794.97;7368225;19;20010;-63
2022/08/21 04:33:13;;;;;;;0.00;0.00;;;;;;;12.50;64.90;100807.94;7368359;19;23227;-63
2022/08/21 04:35:39;;;;;;;0.00;0.00;;;;;;;12.46;65.11;100815.00;7367354;19;20006;-61
2022/08/21 04:38:04;;;;;;;0.00;0.00;;;;;;;12.39;65.38;100805.63;7369931;19;20017;-63
2022/08/21 04:40:29;;;;;;;0.00;0.00;;;;;;;12.39;65.25;100805.63;7365386;19;20018;-63
2022/08/21 04:43:01;;;;;;;0.00;0.00;;;;;;;12.40;64.90;100812.56;7369291;19;20485;-63
2022/08/21 04:45:33;;;;;;;0.00;0.00;;;;;;;12.36;64.94;100813.56;7366475;19;20010;-62
2022/08/21 04:48:01;;;;;;;0.00;0.00;;;;;;;12.28;65.11;100805.94;7368390;19;20475;-63
2022/08/21 04:50:35;;;;;;;;;;;;;;;12.32;62.67;100820.66;7368734;19;20056;-63
2022/08/21 04:53:01;;;;;;;0.00;0.00;;;;;;;12.24;65.12;100821.78;7366878;19;19918;-63
2022/08/21 04:55:27;;;;;;;0.00;0.00;;;;;;;12.23;65.29;100827.91;7368246;19;20031;-62
2022/08/21 04:57:56;;;;;;;0.00;0.00;;;;;;;12.23;65.55;100835.75;7369526;19;20015;-63
2022/08/21 05:00:24;;;;;;;0.00;0.00;;;;;;;12.17;65.40;100832.41;7367539;19;20569;-63
2022/08/21 05:02:55;;;;;;;0.00;0.00;;;;;;;12.14;65.48;100827.25;7367911;19;20010;-63
2022/08/21 05:05:21;;;;;;;0.00;0.00;;;;;;;12.01;65.75;100804.91;7368404;19;20602;-63
2022/08/21 05:07:47;;;;;;;0.00;0.00;;;;;;;12.10;65.80;100832.59;7367390;19;20029;-63
2022/08/21 05:10:14;;;;;;;0.00;0.00;;;;;;;12.10;65.97;100830.84;7366550;19;20018;-63
2022/08/21 05:12:44;;;;;;;0.00;0.00;;;;;;;12.08;65.53;100837.88;7366236;19;20014;-62
2022/08/21 05:15:11;;;;;;;0.00;0.00;;;;;;;12.08;65.83;100837.88;7366725;19;20026;-62
2022/08/21 05:17:37;;;;;;;;;;;;;;;12.10;63.39;100836.06;7367380;19;20039;-63
2022/08/21 05:20:03;;;;;;;0.00;0.00;;;;;;;12.00;65.86;100826.75;7367497;19;19919;-63
2022/08/21 05:22:28;;;;;;;0.00;0.00;;;;;;;12.07;65.41;100840.56;7366117;19;20381;-63
2022/08/21 05:24:53;;;;;;;0.00;0.00;;;;;;;12.04;65.46;100836.25;7366915;19;20014;-63
2022/08/21 05:27:19;;;;;;;0.00;0.00;;;;;;;12.05;65.61;100842.34;7367573;19;20022;-62
2022/08/21 05:29:44;;;;;;;0.00;0.00;;;;;;;12.04;65.90;100838.88;7367084;19;20756;-62
2022/08/21 05:32:12;;;;;;;0.00;0.00;;;;;;;12.04;65.68;100841.47;7366027;19;20077;-63
2022/08/21 05:34:38;;;;;;;0.00;0.00;;;;;;;12.04;65.69;100849.34;7367050;19;20019;-63
2022/08/21 05:37:04;;;;;;;0.00;0.00;;;;;;;12.03;65.54;100842.38;7366800;19;20854;-63
2022/08/21 05:39:29;;;;;;;0.00;0.00;;;;;;;12.02;66.15;100853.75;7366254;19;20015;-63
2022/08/21 05:41:55;;;;;;;0.00;0.00;;;;;;;12.01;65.95;100846.78;7366481;19;20043;-63
2022/08/21 05:44:20;;;;;;;0.00;0.00;;;;;;;12.00;66.18;100850.31;7366542;19;20015;-63
2022/08/21 05:46:46;;;;;;;0.00;0.00;;;;;;;12.01;65.88;100849.41;7366221;19;20589;-63
2022/08/21 05:49:11;;;;;;;0.00;0.00;;;;;;;12.03;66.03;100849.38;7366208;19;20027;-62
2022/08/21 05:51:40;;;;;;;0.00;0.00;;;;;;;12.04;66.19;100851.94;7366465;19;20023;-63
2022/08/21 05:54:05;;;;;;;0.00;0.00;;;;;;;12.06;65.88;100855.38;7367478;19;20750;-63
2022/08/21 05:56:31;;;;;;;0.00;0.00;;;;;;;12.09;66.05;100844.84;7366352;19;20026;-63
2022/08/21 05:58:57;;;;;;;0.00;0.00;;;;;;;12.13;66.16;100854.34;7355381;19;20011;-62
2022/08/21 06:01:23;;;;;;;0.00;0.00;;;;;;;12.17;66.46;100853.34;7363803;19;20014;-63
2022/08/21 06:03:49;;;;;;;0.00;0.00;;;;;;;12.20;66.37;100855.88;7365628;19;20017;-63
2022/08/21 06:06:15;;;;;;;0.00;0.00;;;;;;;12.25;65.98;100855.75;7363248;19;20014;-63
2022/08/21 06:08:40;;;;;;;0.00;0.00;;;;;;;12.28;65.81;100862.69;7363373;19;20361;-63
2022/08/21 06:11:06;;;;;;;0.00;0.00;;;;;;;12.32;65.57;100872.19;7363672;19;20045;-63
2022/08/21 06:13:32;;;;;;;0.00;0.00;;;;;;;12.36;66.20;100863.31;7362118;19;20006;-63
2022/08/21 06:16:09;;;;;;;0.00;0.00;;;;;;;12.43;66.02;100870.13;7364779;19;20083;-63
2022/08/21 06:18:36;;;;;;;0.00;0.00;;;;;;;12.47;65.86;100871.75;7359507;19;20373;-63
2022/08/21 06:21:02;;;;;;;0.00;0.00;;;;;;;12.48;66.25;100863.00;7372054;19;21178;-63
2022/08/21 06:23:27;;;;;;;0.00;0.00;;;;;;;12.51;66.21;100865.50;7372386;19;20485;-63
2022/08/21 06:25:53;;;;;;;0.00;0.00;;;;;;;12.55;66.48;100869.75;7369039;19;19999;-63
2022/08/21 06:28:18;;;;;;;0.00;0.00;;;;;;;12.58;66.48;100874.94;7372731;19;20033;-63
2022/08/21 06:30:44;;;;;;;0.00;0.00;;;;;;;12.47;66.09;100848.19;7370236;19;20010;-63
2022/08/21 06:33:09;;;;;;;0.00;0.00;;;;;;;12.64;66.19;100872.13;7371192;19;20013;-64
2022/08/21 06:35:35;;;;;;;0.00;0.00;;;;;;;12.69;66.43;100883.34;7370377;19;20735;-64
2022/08/21 06:38:01;;;;;;;0.00;0.00;;;;;;;12.73;66.26;100884.13;7372285;19;20014;-63
2022/08/21 06:40:28;;;;;;;0.00;0.00;;;;;;;12.79;66.58;100889.19;7370983;19;20006;-63
2022/08/21 06:42:53;;;;;;;0.00;0.00;;;;;;;12.82;66.23;100896.06;7373015;19;20018;-63
2022/08/21 06:45:20;;;;;;;0.00;0.00;;;;;;;12.87;66.42;100896.81;7352300;19;20045;-62
2022/08/21 06:47:45;;;;;;;0.00;0.00;;;;;;;12.80;66.37;100874.31;7354232;19;20014;-62
2022/08/21 06:50:11;;;;;;;0.00;0.00;;;;;;;12.96;66.46;100888.69;7359775;19;20647;-63
2022/08/21 06:52:37;;;;;;;0.00;0.00;;;;;;;13.02;66.54;100898.97;7361465;19;20040;-62
2022/08/21 06:55:05;;;;;;;0.00;0.00;;;;;;;13.02;66.60;100890.25;7362268;19;20017;-63
2022/08/21 06:57:31;;;;;;;0.00;0.00;;;;;;;13.09;66.65;100897.91;7361090;19;20078;-63
2022/08/21 06:59:56;;;;;;;0.00;0.00;;;;;;;13.12;66.72;100900.41;7362027;19;20299;-63
2022/08/21 07:02:21;;;;;;;0.00;0.00;;;;;;;13.16;66.52;100906.44;7360637;19;20394;-63
2022/08/21 07:04:47;;;;;;;0.00;0.00;;;;;;;13.13;66.46;100899.53;7363275;19;20014;-63
2022/08/21 07:07:12;;;;;;;0.00;0.00;;;;;;;13.22;66.41;100904.50;7360160;19;20019;-63
2022/08/21 07:09:38;;;;;;;0.00;0.00;;;;;;;13.26;66.84;100909.69;7361599;19;20010;-62
2022/08/21 07:12:03;;;;;;;0.00;0.00;;;;;;;13.31;66.56;100907.78;7361031;19;20384;-62
2022/08/21 07:14:29;;;;;;;0.00;0.00;;;;;;;13.35;66.43;100912.03;7361443;19;21005;-63
2022/08/21 07:16:54;;;;;;;0.00;0.00;;;;;;;13.39;66.43;100911.03;7364888;19;20453;-62
2022/08/21 07:19:20;;;;;;;0.00;0.00;;;;;;;13.44;66.97;100919.63;7369714;19;20003;-63
2022/08/21 07:21:46;;;;;;;0.00;0.00;;;;;;;13.48;66.83;100921.22;7367194;19;20017;-62
2022/08/21 07:24:12;;;;;;;0.00;0.00;;;;;;;13.54;66.79;100926.28;7368923;19;20355;-63
2022/08/21 07:26:38;;;;;;;0.00;0.00;;;;;;;13.59;66.83;100927.00;7368152;19;20006;-63
2022/08/21 07:29:03;;;;;;;0.00;0.00;;;;;;;13.66;66.80;100932.91;7369720;19;20035;-63
2022/08/21 07:31:29;;;;;;;0.00;0.00;;;;;;;13.72;66.42;100923.06;7366254;19;20496;-62
2022/08/21 07:33:54;;;;;;;0.00;0.00;;;;;;;13.68;66.66;100912.72;7369958;19;20074;-62
2022/08/21 07:36:20;;;;;;;0.00;0.00;;;;;;;13.86;66.43;100924.41;7365957;19;20010;-63
2022/08/21 07:38:45;;;;;;;0.00;0.00;;;;;;;13.90;66.68;100931.28;7369363;19;20010;-63
2022/08/21 07:41:18;;;;;;;0.00;0.00;;;;;;;14.00;66.20;100930.06;7367344;19;20751;-63
2022/08/21 07:43:44;;;;;;;0.00;0.00;;;;;;;14.02;66.70;100933.47;7367963;19;20020;-62
2022/08/21 07:46:10;;;;;;;0.00;0.00;;;;;;;14.08;66.73;100938.53;7367708;19;20034;-63
2022/08/21 07:48:36;;;;;;;0.00;0.00;;;;;;;14.14;66.58;100938.34;7368619;19;20399;-63
2022/08/21 07:51:07;;;;;;;0.00;0.00;;;;;;;14.23;66.63;100937.16;7367027;19;20153;-63
2022/08/21 07:53:32;;;;;;;0.00;0.00;;;;;;;14.17;66.40;100925.09;7367746;19;20021;-63
2022/08/21 07:55:58;;;;;;;0.00;0.00;;;;;;;14.35;66.33;100938.53;7368020;19;21327;-63
2022/08/21 07:58:23;;;;;;;0.00;0.00;;;;;;;14.34;66.43;100923.63;7367633;19;20017;-61
2022/08/21 08:00:49;;;;;;;0.00;0.00;;;;;;;14.48;65.99;100932.78;7367307;19;20026;-63
2022/08/21 08:03:14;;;;;;;0.00;0.00;;;;;;;14.56;65.64;100935.16;7368774;19;20010;-63
2022/08/21 08:05:40;;;;;;;0.00;0.00;;;;;;;14.52;66.15;100917.78;7366043;19;20006;-63
2022/08/21 08:08:05;;;;;;;0.00;0.00;;;;;;;14.69;65.95;100936.44;7361165;19;20018;-63
2022/08/21 08:10:33;;;;;;;0.00;0.00;;;;;;;14.76;65.83;100935.31;7367295;19;20011;-63
2022/08/21 08:12:58;;;;;;;0.00;0.00;;;;;;;14.81;65.59;100934.28;7367706;19;20062;-62
2022/08/21 08:15:26;;;;;;;0.00;0.00;;;;;;;14.88;65.27;100935.78;7367434;19;20172;-62
2022/08/21 08:17:52;;;;;;;0.00;0.00;;;;;;;14.89;65.28;100937.47;7369073;19;20549;-63
2022/08/21 08:20:18;;;;;;;0.00;0.00;;;;;;;14.74;65.15;100899.47;7366394;19;22293;-62
2022/08/21 08:22:44;;;;;;;0.00;0.00;;;;;;;15.00;64.96;100930.94;7365432;19;20010;-63
2022/08/21 08:25:12;;;;;;;0.00;0.00;;;;;;;15.08;64.99;100935.88;7366402;19;21171;-63
2022/08/21 08:27:38;;;;;;;0.00;0.00;;;;;;;15.15;65.21;100940.00;7368037;19;20462;-63
2022/08/21 08:30:06;;;;;;;0.00;0.00;;;;;;;15.17;64.60;100927.66;7367677;19;20021;-63
2022/08/21 08:32:31;;;;;;;0.00;0.00;;;;;;;15.32;64.35;100929.69;7366810;19;20483;-63
2022/08/21 08:34:59;;;;;;;0.00;0.00;;;;;;;15.42;64.37;100926.72;7368121;19;20018;-63
2022/08/21 08:37:25;;;;;;;0.00;0.00;;;;;;;15.51;64.59;100928.97;7366098;19;20042;-63
2022/08/21 08:39:51;;;;;;;0.00;0.00;;;;;;;15.56;64.18;100925.25;7367319;19;21165;-62
2022/08/21 08:42:27;;;;;;;0.08;0.08;;;;;;;15.77;63.28;100935.88;7367528;19;20012;-63
2022/08/21 08:45:26;;;;;;;0.00;0.00;;;;;;;15.86;62.97;100939.88;7368055;19;20009;-63
2022/08/21 08:47:57;;;;;;;0.00;0.00;;;;;;;15.94;62.85;100930.75;7265175;19;2003924;-63
2022/08/21 08:50:33;;;;;;;0.00;0.00;;;;;;;16.05;62.48;100925.03;7365956;19;20022;-62
2022/08/21 08:53:05;;;;;;;0.03;0.03;;;;;;;16.16;62.63;100930.72;7366625;19;20022;-63
2022/08/21 08:55:42;;;;;;;0.00;0.00;;;;;;;16.34;62.34;100935.22;7366235;19;20344;-63
2022/08/21 08:58:16;;;;;;;0.00;0.00;;;;;;;16.53;62.16;100939.72;7367120;19;20015;-63
2022/08/21 09:00:43;;;;;;;0.10;0.10;;;;;;;16.74;60.97;100941.44;7367357;19;20015;-62
2022/08/21 09:03:08;;;;;;;0.00;0.00;;;;;;;16.99;60.82;100943.81;7365887;19;20052;-63
2022/08/21 09:05:45;;;;;;;0.10;0.10;;;;;;;17.32;60.62;100935.25;7366010;19;20758;-63
2022/08/21 09:08:20;;;;;;;0.00;0.00;;;;;;;17.68;58.95;100937.06;7367144;19;20085;-63
2022/08/21 09:11:04;;;;;;;0.00;0.00;;;;;;;17.98;58.96;100930.31;7365086;19;20584;-63
2022/08/21 09:13:57;;;;;;;0.00;0.00;;;;;;;18.33;58.03;100941.75;7365127;19;20498;-63
2022/08/21 09:17:05;;;;;;;0.00;0.00;;;;;;;18.79;58.18;100939.38;7264500;19;2004532;-63
2022/08/21 09:19:56;;;;;;;0.00;0.00;;;;;;;19.13;55.06;100934.94;7264526;19;2004399;-63
2022/08/21 09:22:58;;;;;;;0.08;0.08;;;;;;;19.71;56.11;100939.66;7365476;19;20070;-63
2022/08/21 09:25:27;;;;;;;0.00;0.00;;;;;;;19.99;53.94;100943.38;7263827;19;2004323;-62
2022/08/21 09:27:54;;;;;;;0.10;0.10;;;;;;;20.28;52.17;100947.84;7365903;19;20006;-63
2022/08/21 09:30:28;;;;;;;0.00;0.00;;;;;;;20.71;52.87;100947.94;7367557;19;20018;-63
2022/08/21 09:32:54;;;;;;;0.00;0.00;;;;;;;20.90;50.87;100937.88;7366231;19;20078;-63
2022/08/21 09:35:24;;;;;;;0.00;0.00;;;;;;;21.35;51.21;100938.63;7364692;19;20120;-63
2022/08/21 09:37:51;;;;;;;0.10;0.10;;;;;;;21.65;49.27;100945.59;7364056;19;20006;-63
2022/08/21 09:40:32;;;;;;;0.00;0.00;;;;;;;22.11;50.12;100931.94;7363284;19;20014;-63
2022/08/21 09:43:01;;;;;;;0.00;0.00;;;;;;;22.43;49.71;100927.94;7367004;19;20705;-63
2022/08/21 09:45:27;;;;;;;0.00;0.00;;;;;;;22.63;45.90;100907.94;7364300;19;20109;-63
2022/08/21 09:47:52;;;;;;;0.10;0.10;;;;;;;23.10;46.95;100926.84;7367369;19;20007;-63
2022/08/21 09:50:22;;;;;;;0.10;0.10;;;;;;;23.52;47.67;100929.09;7364035;19;20010;-63
2022/08/21 09:52:54;;;;;;;0.03;0.03;;;;;;;23.96;47.66;100927.63;7363786;19;20784;-63
2022/08/21 09:58:16;;;;;;;0.10;0.10;;;;;;;24.71;45.26;100923.72;7263821;19;2004409;-63
2022/08/21 10:00:43;;;;;;;0.10;0.10;;;;;;;24.99;43.67;100927.69;7364427;19;20583;-63
2022/08/21 10:03:12;;;;;;;0.10;0.10;;;;;;;25.33;42.25;100929.41;7366662;19;20010;-63
2022/08/21 10:05:39;;;;;;;0.10;0.10;;;;;;;25.62;40.95;100926.19;7365160;19;20026;-63
2022/08/21 10:08:05;;;;;;;;;;;;;;;26.21;48.78;100927.56;7366793;19;20026;-63
2022/08/21 10:10:36;;;;;;;0.10;0.10;;;;;;;26.31;39.44;100928.47;7365301;19;19915;-63
2022/08/21 10:13:42;;;;;;;0.10;0.10;;;;;;;26.74;45.35;100922.94;7366310;19;20017;-63
2022/08/21 10:16:18;;;;;;;0.10;0.10;;;;;;;26.90;43.44;100919.78;7259112;19;2004478;-63
2022/08/21 10:18:52;;;;;;;0.10;0.10;;;;;;;27.09;42.98;100917.19;7361779;19;20657;-63
2022/08/21 10:21:27;;;;;;;0.10;0.10;;;;;;;27.41;39.42;100924.19;7364934;19;20010;-63
2022/08/21 10:24:23;;;;;;;0.10;0.10;;;;;;;27.64;41.13;100925.66;7365819;19;20017;-63
2022/08/21 10:27:04;;;;;;;0.10;0.10;;;;;;;27.66;41.22;100912.94;7264859;19;2004585;-63
2022/08/21 10:29:51;;;;;;;0.10;0.10;;;;;;;27.88;42.43;100913.69;7365588;19;20468;-63
2022/08/21 10:32:52;;;;;;;0.00;0.00;;;;;;;28.23;42.36;100914.91;7363830;19;20010;-63
2022/08/21 10:35:31;;;;;;;0.10;0.10;;;;;;;28.59;39.52;100911.47;7259381;19;2004350;-63
2022/08/21 10:38:06;;;;;;;0.00;0.00;;;;;;;28.82;33.08;100911.09;7365462;19;20018;-60
2022/08/21 10:40:40;;;;;;;0.10;0.10;;;;;;;29.27;37.56;100915.72;7365347;19;20010;-60
2022/08/21 10:43:30;;;;;;;0.08;0.08;;;;;;;29.45;33.55;100913.88;7364869;19;20024;-61
2022/08/21 10:46:05;;;;;;;0.00;0.00;;;;;;;29.90;35.42;100913.00;7363705;19;20007;-61
2022/08/21 10:48:34;;;;;;;0.05;0.05;;;;;;;30.09;34.03;100918.22;7364193;19;20431;-61
2022/08/21 10:51:27;;;;;;;0.10;0.10;;;;;;;30.58;35.96;100921.28;7365484;19;20390;-60
2022/08/21 10:53:52;;;;;;;0.00;0.00;;;;;;;30.98;32.16;100922.53;7371419;19;20073;-60
2022/08/21 10:56:22;;;;;;;0.10;0.10;;;;;;;31.49;32.55;100923.41;7370108;19;20266;-60
2022/08/21 10:59:27;;;;;;;0.00;0.00;;;;;;;31.95;34.32;100915.72;7371726;19;20085;-60
2022/08/21 11:02:01;;;;;;;0.10;0.10;;;;;;;32.27;33.10;100901.34;7270000;19;2004266;-61
2022/08/21 11:04:41;;;;;;;0.10;0.10;;;;;;;32.73;34.15;100902.44;7370208;19;20561;-59
2022/08/21 11:07:26;;;;;;;0.10;0.10;;;;;;;33.21;32.78;100922.22;7370511;19;20020;-61
2022/08/21 11:09:55;;;;;;;0.10;0.10;;;;;;;33.66;29.30;100923.34;7371781;19;20022;-60
2022/08/21 11:12:24;;;;;;;0.10;0.10;;;;;;;34.18;30.40;100929.91;7369974;19;20014;-61
2022/08/21 11:14:58;;;;;;;0.00;0.00;;;;;;;34.53;31.71;100922.97;7370840;19;20020;-60
2022/08/21 11:17:33;;;;;;;0.00;0.00;;;;;;;34.78;30.33;100904.53;7369557;19;20014;-61
2022/08/21 11:20:21;;;;;;;0.00;0.00;;;;;;;35.24;30.65;100917.88;7369926;19;20020;-60
2022/08/21 11:22:56;;;;;;;0.00;0.00;;;;;;;35.57;27.33;100910.13;7369372;19;20022;-61
2022/08/21 11:25:34;;;;;;;0.10;0.10;;;;;;;36.09;29.36;100914.38;7371527;19;20014;-61
2022/08/21 11:28:09;;;;;;;0.00;0.00;;;;;;;36.46;27.28;100918.69;7371170;19;20036;-60
2022/08/21 11:30:59;;;;;;;0.10;0.10;;;;;;;37.00;29.70;100917.09;7369595;19;20033;-61
2022/08/21 11:33:54;;;;;;;0.00;0.00;;;;;;;37.27;26.72;100918.06;7370042;19;20015;-61
2022/08/21 11:36:27;;;;;;;0.00;0.00;;;;;;;37.29;25.12;100910.50;7269017;19;2004567;-61
2022/08/21 11:39:17;;;;;;;0.00;0.00;;;;;;;37.41;26.64;100925.22;7369486;19;20026;-61